Adamsdale, PA

9:34 AM EST on November 23, 2014 (GMT -0500)
North Greenview Rd | Change Station
CLOSE
Current Station
Personal Weather Station
Location: Schuylkill Haven, PA
Elevation: 574 ft
Nearby Weather Stations

Elev 574 ft 40.65 °N, 76.13 °W | Updated 3 minutes ago

Overcast
Overcast
40.1 °F
Feels Like 40 °F
N
1.6
Wind Variable Wind from South

Today
High -- | Low -- °F
--% Chance of Precip.
Yesterday
High -- | Low -- °F
Precip. -- in
7:00 AM 4:41 PM
New Moon, 1% visible
Pressure 30.23 in
Visibility 10.0 miles
Clouds Scattered Clouds 8000 ft
Mostly Cloudy 11000 ft
Windchill 40 °F
Dew Point 28 °F
Humidity 62%
Rainfall 0.00 in
Snow Depth Not available.
UV 1 out of 12
Pollen .10 out of 12
Air Quality Not available.
Flu Activity Not available.
METAR KRDG 231354Z 21003KT 10SM SCT080 BKN110 06/M04 A3021 RMK AO2 SLP236 T00561044

More Conditions Fewer Conditions

Pressure 30.23 in
Visibility 10.0 miles
Clouds Scattered Clouds 8000 ft
Mostly Cloudy 11000 ft
Windchill 40 °F
Dew Point 28 °F
Humidity 62%
Rainfall 0.00 in
Snow Depth Not available.
UV 1 out of 12
Pollen .10 out of 12
Air Quality Not available.
Flu Activity Not available.
METAR KRDG 231354Z 21003KT 10SM SCT080 BKN110 06/M04 A3021 RMK AO2 SLP236 T00561044

More Conditions Fewer Conditions

10-Day Weather Forecast

Almanac

Astronomy

Nov. 23, 2014 Rise Set
Actual Time
Civil Twilight
Nautical Twilight
Astronomical Twilight
Moon
Length of Visible Light
Length of Day
Tomorrow will be .
, % of the Moon is Illuminated

Today's Extremes

State Highs State Lows

Community

WunderPhotos

Upload Photos

1,773,077 photos uploaded!

WunderBlogs® & News

Nearby

Air Quality

  Air Quality AQ Index Pollutant
Not available.

Snow Depth

Station Depth Elevation

Earthquake Activity

City Distance Mag. Time & Date
Minimum magnitude displayed is 2.5.

Coastal Water Temperatures

Place Temperature

Nearby Weather Stations